createdAt,value
2023-03-02T00:01:47.362Z,13.18
2023-03-02T00:04:21.550Z,13.30
2023-03-02T00:06:49.984Z,13.30
2023-03-02T00:09:17.371Z,14.27
2023-03-02T00:11:45.705Z,14.05
2023-03-02T00:14:12.514Z,14.00
2023-03-02T00:16:40.382Z,13.60
2023-03-02T00:19:07.442Z,14.02
2023-03-02T00:21:34.745Z,12.98
2023-03-02T00:24:01.502Z,13.90
2023-03-02T00:26:28.829Z,13.13
2023-03-02T00:28:55.819Z,15.63
2023-03-02T00:31:23.082Z,14.45
2023-03-02T00:33:51.294Z,15.00
2023-03-02T00:36:20.685Z,15.15
2023-03-02T00:38:48.253Z,13.68
2023-03-02T00:41:16.562Z,14.47
2023-03-02T00:43:43.446Z,16.10
2023-03-02T00:46:22.584Z,15.75
2023-03-02T00:48:50.260Z,14.77
2023-03-02T00:51:18.390Z,16.58
2023-03-02T00:53:45.456Z,15.10
2023-03-02T00:56:12.727Z,13.93
2023-03-02T00:58:44.948Z,14.05
2023-03-02T01:01:13.405Z,13.88
2023-03-02T01:03:45.060Z,14.48
2023-03-02T01:06:19.444Z,14.30
2023-03-02T01:08:46.841Z,15.57
2023-03-02T01:11:19.630Z,17.95
2023-03-02T01:13:47.349Z,16.02
2023-03-02T01:16:15.103Z,15.43
2023-03-02T01:18:42.346Z,14.93
2023-03-02T01:21:13.635Z,15.73
2023-03-02T01:23:41.745Z,16.15
2023-03-02T01:26:09.196Z,15.88
2023-03-02T01:28:36.808Z,18.08
2023-03-02T01:31:04.781Z,15.23
2023-03-02T01:33:32.452Z,15.77
2023-03-02T01:36:00.039Z,17.55
2023-03-02T01:38:27.403Z,15.43
2023-03-02T01:40:55.134Z,15.95
2023-03-02T01:43:22.245Z,15.60
2023-03-02T01:45:54.008Z,16.70
2023-03-02T01:48:39.936Z,17.50
2023-03-02T01:51:07.935Z,14.85
2023-03-02T01:53:36.890Z,16.40
2023-03-02T01:56:05.749Z,16.77
2023-03-02T01:58:36.556Z,17.58
2023-03-02T02:01:04.731Z,16.35
2023-03-02T02:03:31.764Z,15.57
2023-03-02T02:06:25.425Z,17.23
2023-03-02T02:08:55.634Z,16.27
2023-03-02T02:11:22.893Z,16.08
2023-03-02T02:13:55.810Z,15.48
2023-03-02T02:16:23.557Z,15.90
2023-03-02T02:18:50.475Z,17.10
2023-03-02T02:21:19.271Z,17.27
2023-03-02T02:23:48.943Z,16.70
2023-03-02T02:26:27.132Z,17.27
2023-03-02T02:29:14.781Z,17.15
2023-03-02T02:31:48.231Z,16.50
2023-03-02T02:34:22.806Z,17.17
2023-03-02T02:36:56.000Z,16.88
2023-03-02T02:39:29.126Z,16.92
2023-03-02T02:42:00.445Z,16.98
2023-03-02T02:44:28.588Z,18.73
2023-03-02T02:46:55.759Z,17.67
2023-03-02T02:49:39.153Z,17.60
2023-03-02T02:52:07.064Z,18.35
2023-03-02T02:54:36.420Z,18.40
2023-03-02T02:57:05.025Z,18.08
2023-03-02T02:59:39.937Z,17.30
2023-03-02T03:02:15.369Z,15.98
2023-03-02T03:04:42.319Z,17.92
2023-03-02T03:07:13.136Z,17.92
2023-03-02T03:09:40.074Z,18.23
2023-03-02T03:12:19.803Z,18.23
2023-03-02T03:14:48.089Z,18.38
2023-03-02T03:17:15.497Z,16.67
2023-03-02T03:19:53.643Z,17.98
2023-03-02T03:22:20.792Z,16.88
2023-03-02T03:24:50.076Z,18.37
2023-03-02T03:27:18.733Z,17.67
2023-03-02T03:29:48.455Z,18.83
2023-03-02T03:32:18.997Z,16.52
2023-03-02T03:34:46.724Z,17.23
2023-03-02T03:37:21.081Z,17.87
2023-03-02T03:39:48.611Z,16.88
2023-03-02T03:42:17.281Z,16.80
2023-03-02T03:44:44.783Z,16.35
2023-03-02T03:47:12.014Z,17.35
2023-03-02T03:49:39.002Z,16.13
2023-03-02T03:52:07.767Z,18.45
2023-03-02T03:54:34.746Z,16.67
2023-03-02T03:57:01.933Z,20.38
2023-03-02T03:59:29.237Z,16.58
2023-03-02T04:02:01.283Z,18.63
2023-03-02T04:04:37.929Z,16.90
2023-03-02T04:07:15.146Z,16.48
2023-03-02T04:09:43.832Z,16.55
2023-03-02T04:12:13.025Z,16.00
2023-03-02T04:14:44.119Z,16.63
2023-03-02T04:17:12.029Z,20.08
2023-03-02T04:19:42.601Z,16.75
2023-03-02T04:22:10.340Z,16.88
2023-03-02T04:24:37.172Z,16.95
2023-03-02T04:27:05.205Z,16.67
2023-03-02T04:29:33.845Z,16.95
2023-03-02T04:32:03.676Z,17.65
2023-03-02T04:34:32.888Z,17.00
2023-03-02T04:37:00.693Z,16.73
2023-03-02T04:39:27.654Z,16.63
2023-03-02T04:41:55.465Z,16.25
2023-03-02T04:44:22.660Z,16.23
2023-03-02T04:46:50.257Z,17.48
2023-03-02T04:49:19.543Z,17.13
2023-03-02T04:51:50.038Z,17.93
2023-03-02T04:54:20.703Z,16.60
2023-03-02T04:56:48.741Z,15.75
2023-03-02T04:59:16.783Z,18.73
2023-03-02T05:01:44.812Z,17.52
2023-03-02T05:04:12.267Z,18.70
2023-03-02T05:06:39.523Z,18.88
2023-03-02T05:09:06.642Z,17.77
2023-03-02T05:11:34.544Z,15.85
2023-03-02T05:14:04.205Z,17.40
2023-03-02T05:16:33.932Z,16.23
2023-03-02T05:19:03.367Z,17.13
2023-03-02T05:21:30.688Z,18.77
2023-03-02T05:23:57.785Z,17.65
2023-03-02T05:26:25.047Z,18.35
2023-03-02T05:28:53.962Z,15.97
2023-03-02T05:31:27.856Z,15.63
2023-03-02T05:33:54.888Z,15.68
2023-03-02T05:36:23.335Z,18.27
2023-03-02T05:38:50.398Z,16.73
2023-03-02T05:41:17.920Z,17.37
2023-03-02T05:43:44.971Z,16.40
2023-03-02T05:46:12.157Z,15.27
2023-03-02T05:48:38.955Z,17.20
2023-03-02T05:51:06.243Z,16.83
2023-03-02T05:53:33.148Z,16.53
2023-03-02T05:56:00.343Z,14.38
2023-03-02T05:58:27.175Z,15.82
2023-03-02T06:00:54.323Z,16.00
2023-03-02T06:03:21.393Z,14.20
2023-03-02T06:05:51.076Z,15.77
2023-03-02T06:08:19.428Z,16.85
2023-03-02T06:10:46.762Z,17.50
2023-03-02T06:13:13.751Z,16.75
2023-03-02T06:15:40.898Z,17.02
2023-03-02T06:18:07.707Z,15.77
2023-03-02T06:20:34.820Z,15.52
2023-03-02T06:23:01.604Z,16.67
2023-03-02T06:25:28.937Z,16.65
2023-03-02T06:27:55.777Z,17.50
2023-03-02T06:30:25.161Z,16.67
2023-03-02T06:32:52.351Z,16.55
2023-03-02T06:35:19.830Z,16.55
2023-03-02T06:37:46.738Z,15.20
2023-03-02T06:40:14.350Z,17.85
2023-03-02T06:42:42.503Z,16.83
2023-03-02T06:45:10.606Z,17.08
2023-03-02T06:47:37.871Z,18.30
2023-03-02T06:50:06.299Z,17.42
2023-03-02T06:52:33.454Z,16.55
2023-03-02T06:55:00.564Z,15.53
2023-03-02T06:57:33.914Z,15.40
2023-03-02T07:00:06.927Z,16.83
2023-03-02T07:02:33.874Z,16.40
2023-03-02T07:05:01.014Z,14.70
2023-03-02T07:07:27.845Z,15.83
2023-03-02T07:09:54.964Z,15.35
2023-03-02T07:12:21.741Z,16.67
2023-03-02T07:14:48.914Z,16.75
2023-03-02T07:17:15.711Z,15.70
2023-03-02T07:19:43.038Z,17.40
2023-03-02T07:22:09.835Z,14.70
2023-03-02T07:24:37.006Z,15.75
2023-03-02T07:27:04.439Z,14.85
2023-03-02T07:29:31.522Z,15.15
2023-03-02T07:32:01.095Z,14.47
2023-03-02T07:34:28.572Z,14.77
2023-03-02T07:36:55.421Z,14.00
2023-03-02T07:39:22.565Z,13.73
2023-03-02T07:41:49.513Z,14.15
2023-03-02T07:44:20.981Z,17.03
2023-03-02T07:46:47.862Z,19.42
2023-03-02T07:49:15.042Z,15.93
2023-03-02T07:51:41.922Z,14.63
2023-03-02T07:54:09.520Z,19.23
2023-03-02T07:56:36.406Z,15.20
2023-03-02T07:59:04.051Z,16.13
2023-03-02T08:01:31.352Z,16.48
2023-03-02T08:03:58.814Z,14.30
2023-03-02T08:06:25.587Z,16.90
2023-03-02T08:08:52.785Z,14.33
2023-03-02T08:11:19.612Z,14.68
2023-03-02T08:13:46.811Z,13.45
2023-03-02T08:16:15.764Z,13.55
2023-03-02T08:18:43.747Z,15.18
2023-03-02T08:21:20.254Z,14.83
2023-03-02T08:23:48.299Z,15.45
2023-03-02T08:26:17.493Z,17.05
2023-03-02T08:28:45.682Z,15.45
2023-03-02T08:31:13.983Z,16.73
2023-03-02T08:33:41.219Z,14.07
2023-03-02T08:36:12.428Z,19.40
2023-03-02T08:38:39.694Z,20.70
2023-03-02T08:41:08.390Z,16.30
2023-03-02T08:43:35.778Z,19.52
2023-03-02T08:46:03.142Z,19.97
2023-03-02T08:48:30.739Z,18.50
2023-03-02T08:51:03.960Z,17.98
2023-03-02T08:53:33.806Z,16.75
2023-03-02T08:56:01.101Z,15.77
2023-03-02T08:58:29.022Z,15.93
2023-03-02T09:00:55.906Z,14.07
2023-03-02T09:03:23.097Z,18.80
2023-03-02T09:05:50.006Z,15.90
2023-03-02T09:08:17.265Z,18.42
2023-03-02T09:10:44.047Z,17.80
2023-03-02T09:13:11.143Z,16.02
2023-03-02T09:15:37.926Z,15.82
2023-03-02T09:18:05.119Z,13.93
2023-03-02T09:20:34.022Z,14.38
2023-03-02T09:23:01.275Z,13.67
2023-03-02T09:25:28.273Z,14.98
2023-03-02T09:27:55.393Z,13.65
2023-03-02T09:30:22.193Z,17.95
2023-03-02T09:32:49.465Z,13.45
2023-03-02T09:35:16.470Z,14.47
2023-03-02T09:37:44.627Z,17.90
2023-03-02T09:40:20.437Z,18.73
2023-03-02T09:43:11.984Z,15.40
2023-03-02T09:46:02.693Z,15.60
2023-03-02T09:48:41.498Z,12.63
2023-03-02T09:51:31.432Z,18.10
2023-03-02T09:54:07.804Z,17.95
2023-03-02T09:56:38.298Z,17.08
2023-03-02T09:59:11.892Z,17.33
2023-03-02T10:01:44.729Z,18.27
2023-03-02T10:04:19.040Z,18.10
2023-03-02T10:06:46.231Z,18.02
2023-03-02T10:09:13.495Z,18.52
2023-03-02T10:12:14.617Z,17.38
2023-03-02T10:14:53.083Z,17.73
2023-03-02T10:17:37.348Z,18.48
2023-03-02T10:20:12.694Z,17.52
2023-03-02T10:22:45.769Z,15.15
2023-03-02T10:25:34.100Z,15.60
2023-03-02T10:28:24.168Z,13.27
2023-03-02T10:31:01.636Z,13.30
2023-03-02T10:33:29.786Z,18.45
2023-03-02T10:35:56.980Z,18.02
2023-03-02T10:38:25.106Z,16.17
2023-03-02T10:41:00.228Z,15.60
2023-03-02T10:43:31.932Z,16.40
2023-03-02T10:46:00.710Z,16.13
2023-03-02T10:48:27.719Z,19.20
2023-03-02T10:50:56.925Z,13.50
2023-03-02T10:53:24.508Z,14.23
2023-03-02T10:55:53.824Z,13.25
2023-03-02T10:58:33.062Z,15.32
2023-03-02T11:01:06.199Z,18.50
2023-03-02T11:03:33.460Z,16.38
2023-03-02T11:06:22.586Z,14.27
2023-03-02T11:09:00.614Z,13.75
2023-03-02T11:11:28.025Z,17.48
2023-03-02T11:13:56.527Z,17.75
2023-03-02T11:16:31.972Z,13.40
2023-03-02T11:19:02.897Z,16.57
2023-03-02T11:21:35.845Z,15.00
2023-03-02T11:24:10.412Z,12.30
2023-03-02T11:26:39.940Z,14.40
2023-03-02T11:29:24.904Z,13.25
2023-03-02T11:32:32.295Z,13.43
2023-03-02T11:35:19.750Z,14.50
2023-03-02T11:37:57.472Z,13.13
2023-03-02T11:40:47.075Z,12.13
2023-03-02T11:43:14.734Z,12.52
2023-03-02T11:45:45.627Z,13.00
2023-03-02T11:48:33.801Z,14.02
2023-03-02T11:51:04.619Z,13.48
2023-03-02T11:53:49.419Z,12.48
2023-03-02T11:56:16.650Z,13.90
2023-03-02T11:58:47.129Z,13.87
2023-03-02T12:01:21.077Z,13.50
2023-03-02T12:03:48.269Z,16.23
2023-03-02T12:06:15.056Z,14.50
2023-03-02T12:08:45.126Z,13.85
2023-03-02T12:11:17.988Z,14.73
2023-03-02T12:13:46.012Z,14.30
2023-03-02T12:16:20.090Z,15.10
2023-03-02T12:18:51.886Z,14.52
2023-03-02T12:21:20.836Z,15.20
2023-03-02T12:23:51.099Z,18.60
2023-03-02T12:26:21.067Z,13.85
2023-03-02T12:29:23.063Z,15.38
2023-03-02T12:31:55.505Z,13.90
2023-03-02T12:34:38.400Z,15.50
2023-03-02T12:37:15.900Z,18.47
2023-03-02T12:39:43.054Z,18.40
2023-03-02T12:42:25.905Z,18.60
2023-03-02T12:45:04.743Z,17.38
2023-03-02T12:47:32.749Z,18.77
2023-03-02T12:50:07.001Z,17.40
2023-03-02T12:52:36.044Z,18.55
2023-03-02T12:55:03.180Z,19.00
2023-03-02T12:57:30.733Z,17.63
2023-03-02T13:00:00.464Z,15.55
2023-03-02T13:02:34.065Z,18.10
2023-03-02T13:05:02.991Z,15.52
2023-03-02T13:07:56.447Z,16.70
2023-03-02T13:10:38.479Z,17.35
2023-03-02T13:13:20.664Z,15.93
2023-03-02T13:15:49.118Z,15.30
2023-03-02T13:18:16.501Z,13.93
2023-03-02T13:20:43.981Z,13.73
2023-03-02T13:23:14.221Z,13.93
2023-03-02T13:26:02.424Z,14.65
2023-03-02T13:28:32.093Z,13.13
2023-03-02T13:31:21.006Z,15.82
2023-03-02T13:33:52.758Z,15.05
2023-03-02T13:36:26.010Z,14.30
2023-03-02T13:38:57.033Z,16.83
2023-03-02T13:41:35.763Z,14.70
2023-03-02T13:44:21.470Z,14.20
2023-03-02T13:46:48.741Z,17.02
2023-03-02T13:49:26.829Z,16.77
2023-03-02T13:52:08.212Z,14.57
2023-03-02T13:54:37.432Z,14.60
2023-03-02T13:57:05.907Z,14.25
2023-03-02T13:59:36.482Z,15.73
2023-03-02T14:02:11.349Z,15.88
2023-03-02T14:04:38.278Z,14.57
2023-03-02T14:07:05.528Z,15.30
2023-03-02T14:09:32.320Z,13.70
2023-03-02T14:11:59.478Z,14.25
2023-03-02T14:14:29.847Z,14.98
2023-03-02T14:16:57.178Z,15.00
2023-03-02T14:19:23.981Z,14.43
2023-03-02T14:21:51.145Z,15.00
2023-03-02T14:24:17.963Z,14.48
2023-03-02T14:26:49.140Z,13.77
2023-03-02T14:29:15.974Z,13.65
2023-03-02T14:31:43.123Z,14.20
2023-03-02T14:34:13.520Z,15.50
2023-03-02T14:36:41.788Z,15.30
2023-03-02T14:39:18.888Z,16.88
2023-03-02T14:41:53.360Z,15.32
2023-03-02T14:44:20.819Z,14.43
2023-03-02T14:46:48.127Z,14.45
2023-03-02T14:49:15.021Z,14.70
2023-03-02T14:51:45.071Z,13.88
2023-03-02T14:54:19.434Z,15.35
2023-03-02T14:56:48.676Z,14.57
2023-03-02T14:59:16.181Z,15.10
2023-03-02T15:01:46.329Z,15.43
2023-03-02T15:04:13.249Z,14.90
2023-03-02T15:06:42.557Z,14.82
2023-03-02T15:09:11.271Z,14.47
2023-03-02T15:11:38.425Z,13.95
2023-03-02T15:14:05.233Z,13.63
2023-03-02T15:16:32.413Z,13.55
2023-03-02T15:18:59.312Z,13.90
2023-03-02T15:21:26.523Z,13.03
2023-03-02T15:23:53.558Z,14.95
2023-03-02T15:26:20.776Z,13.75
2023-03-02T15:28:51.413Z,13.68
2023-03-02T15:31:19.428Z,11.88
2023-03-02T15:33:46.672Z,12.00
2023-03-02T15:36:14.282Z,12.50
2023-03-02T15:38:41.162Z,15.00
2023-03-02T15:41:12.334Z,15.70
2023-03-02T15:43:39.609Z,15.80
2023-03-02T15:46:07.141Z,16.67
2023-03-02T15:48:33.942Z,17.02
2023-03-02T15:51:04.209Z,19.40
2023-03-02T15:53:33.590Z,15.65
2023-03-02T15:56:00.760Z,18.00
2023-03-02T15:58:27.610Z,15.43
2023-03-02T16:00:54.736Z,15.05
2023-03-02T16:03:23.248Z,14.30
2023-03-02T16:05:50.476Z,12.57
2023-03-02T16:08:18.343Z,13.02
2023-03-02T16:10:56.240Z,13.33
2023-03-02T16:13:23.050Z,12.07
2023-03-02T16:15:50.175Z,12.02
2023-03-02T16:18:16.982Z,12.90
2023-03-02T16:20:44.152Z,10.68
2023-03-02T16:23:11.589Z,12.80
2023-03-02T16:25:41.174Z,11.52
2023-03-02T16:28:08.030Z,12.70
2023-03-02T16:30:35.594Z,16.70
2023-03-02T16:33:07.779Z,16.83
2023-03-02T16:35:37.242Z,21.57
2023-03-02T16:38:05.248Z,15.43
2023-03-02T16:40:33.456Z,14.68
2023-03-02T16:43:00.293Z,16.60
2023-03-02T16:45:27.445Z,18.00
2023-03-02T16:47:54.655Z,16.80
2023-03-02T16:50:21.773Z,17.20
2023-03-02T16:52:48.585Z,18.83
2023-03-02T16:55:18.470Z,15.52
2023-03-02T16:57:45.726Z,16.58
2023-03-02T17:00:16.429Z,16.20
2023-03-02T17:02:44.006Z,16.17
2023-03-02T17:05:12.667Z,14.98
2023-03-02T17:07:39.947Z,16.25
2023-03-02T17:10:13.550Z,12.93
2023-03-02T17:12:40.320Z,13.03
2023-03-02T17:15:08.242Z,14.32
2023-03-02T17:17:35.055Z,12.75
2023-03-02T17:20:02.438Z,12.02
2023-03-02T17:22:29.232Z,13.38
2023-03-02T17:24:56.347Z,13.07
2023-03-02T17:27:25.975Z,12.90
2023-03-02T17:29:54.366Z,12.98
2023-03-02T17:32:23.241Z,12.45
2023-03-02T17:34:51.037Z,12.68
2023-03-02T17:37:17.842Z,11.70
2023-03-02T17:39:45.069Z,12.20
2023-03-02T17:42:11.906Z,12.20
2023-03-02T17:44:40.325Z,12.48
2023-03-02T17:47:08.435Z,12.93
2023-03-02T17:49:40.334Z,11.93
2023-03-02T17:52:07.257Z,12.20
2023-03-02T17:54:34.457Z,17.05
2023-03-02T17:57:01.246Z,12.95
2023-03-02T17:59:28.356Z,13.25
2023-03-02T18:01:55.909Z,12.20
2023-03-02T18:04:23.338Z,14.65
2023-03-02T18:06:52.403Z,12.77
2023-03-02T18:09:20.898Z,13.38
2023-03-02T18:11:47.793Z,14.93
2023-03-02T18:14:17.621Z,15.33
2023-03-02T18:16:44.976Z,13.60
2023-03-02T18:19:12.393Z,11.85
2023-03-02T18:21:41.882Z,12.93
2023-03-02T18:24:09.588Z,13.48
2023-03-02T18:26:36.904Z,15.00
2023-03-02T18:29:05.247Z,16.13
2023-03-02T18:31:34.388Z,13.75
2023-03-02T18:34:02.314Z,11.75
2023-03-02T18:36:29.766Z,14.05
2023-03-02T18:38:56.898Z,11.60
2023-03-02T18:41:24.569Z,11.48
2023-03-02T18:43:52.493Z,12.25
2023-03-02T18:46:25.305Z,12.95
2023-03-02T18:48:53.745Z,18.20
2023-03-02T18:51:22.266Z,20.63
2023-03-02T18:53:49.857Z,14.65
2023-03-02T18:56:17.402Z,13.55
2023-03-02T18:58:45.860Z,18.60
2023-03-02T19:01:13.210Z,32.88
2023-03-02T19:03:41.948Z,22.60
2023-03-02T19:06:08.851Z,24.50
2023-03-02T19:08:36.517Z,20.85
2023-03-02T19:11:05.155Z,28.17
2023-03-02T19:13:32.387Z,19.92
2023-03-02T19:16:02.087Z,18.00
2023-03-02T19:18:30.517Z,16.60
2023-03-02T19:20:57.855Z,18.65
2023-03-02T19:23:25.242Z,16.38
2023-03-02T19:25:52.457Z,21.75
2023-03-02T19:28:21.722Z,19.33
2023-03-02T19:30:49.597Z,20.27
2023-03-02T19:33:17.767Z,20.27
2023-03-02T19:35:44.852Z,15.85
2023-03-02T19:38:12.739Z,12.60
2023-03-02T19:40:39.687Z,12.17
2023-03-02T19:43:06.955Z,11.95
2023-03-02T19:45:35.765Z,12.60
2023-03-02T19:48:03.710Z,12.75
2023-03-02T19:50:30.719Z,14.60
2023-03-02T19:52:58.627Z,12.97
2023-03-02T19:55:26.269Z,13.65
2023-03-02T19:57:59.833Z,12.43
2023-03-02T20:00:29.224Z,12.40
2023-03-02T20:02:57.330Z,13.20
2023-03-02T20:05:26.052Z,13.27
2023-03-02T20:07:54.237Z,14.02
2023-03-02T20:10:37.377Z,14.27
2023-03-02T20:13:05.693Z,12.90
2023-03-02T20:15:34.913Z,13.27
2023-03-02T20:18:02.696Z,13.83
2023-03-02T20:20:30.948Z,14.38
2023-03-02T20:23:00.162Z,13.60
2023-03-02T20:25:28.382Z,14.65
2023-03-02T20:27:56.945Z,14.38
2023-03-02T20:30:33.970Z,13.73
2023-03-02T20:33:01.954Z,12.77
2023-03-02T20:35:32.981Z,12.30
2023-03-02T20:38:02.660Z,16.42
2023-03-02T20:40:29.907Z,14.60
2023-03-02T20:42:57.654Z,12.63
2023-03-02T20:45:24.947Z,12.52
2023-03-02T20:47:52.127Z,13.45
2023-03-02T20:50:21.994Z,12.43
2023-03-02T20:52:49.184Z,11.98
2023-03-02T20:55:16.021Z,13.20
2023-03-02T20:57:43.153Z,12.88
2023-03-02T21:00:16.103Z,13.85
2023-03-02T21:02:47.357Z,12.38
2023-03-02T21:05:16.617Z,12.30
2023-03-02T21:07:44.796Z,11.03
2023-03-02T21:10:15.534Z,13.15
2023-03-02T21:12:43.104Z,13.60
2023-03-02T21:15:10.683Z,12.23
2023-03-02T21:17:38.372Z,12.73
2023-03-02T21:20:06.408Z,12.17
2023-03-02T21:22:33.945Z,11.73
2023-03-02T21:25:00.784Z,11.70
2023-03-02T21:27:29.057Z,10.68
2023-03-02T21:29:56.056Z,11.50
2023-03-02T21:32:23.344Z,12.30
2023-03-02T21:34:50.151Z,11.20
2023-03-02T21:37:17.288Z,10.93
2023-03-02T21:39:44.097Z,11.13
2023-03-02T21:42:11.594Z,11.75
2023-03-02T21:44:38.541Z,10.23
2023-03-02T21:47:06.077Z,11.38
2023-03-02T21:49:32.926Z,10.57
2023-03-02T21:52:00.176Z,11.23
2023-03-02T21:54:26.998Z,11.05
2023-03-02T21:56:54.234Z,11.70
2023-03-02T21:59:22.525Z,11.30
2023-03-02T22:01:49.901Z,10.45
2023-03-02T22:04:16.842Z,10.75
2023-03-02T22:06:43.976Z,11.38
2023-03-02T22:09:11.741Z,10.83
2023-03-02T22:11:39.056Z,11.63
2023-03-02T22:14:14.761Z,11.52
2023-03-02T22:16:46.469Z,11.82
2023-03-02T22:19:30.191Z,13.38
2023-03-02T22:22:03.237Z,11.97
2023-03-02T22:24:32.885Z,17.90
2023-03-02T22:27:18.726Z,20.30
2023-03-02T22:29:47.157Z,19.65
2023-03-02T22:32:23.639Z,19.98
2023-03-02T22:34:53.344Z,17.03
2023-03-02T22:37:23.624Z,16.77
2023-03-02T22:39:54.733Z,17.65
2023-03-02T22:42:27.242Z,13.98
2023-03-02T22:45:15.769Z,18.83
2023-03-02T22:47:44.233Z,20.47
2023-03-02T22:50:23.741Z,21.98
2023-03-02T22:52:51.970Z,21.15
2023-03-02T22:55:37.023Z,20.45
2023-03-02T22:58:22.966Z,19.10
2023-03-02T23:00:49.800Z,17.50
2023-03-02T23:03:50.908Z,19.40
2023-03-02T23:06:38.583Z,14.80
2023-03-02T23:09:06.511Z,16.80
2023-03-02T23:11:38.279Z,15.23
2023-03-02T23:14:23.721Z,19.47
2023-03-02T23:17:14.253Z,21.00
2023-03-02T23:19:41.527Z,21.52
2023-03-02T23:22:09.428Z,18.73
2023-03-02T23:24:36.916Z,17.58
2023-03-02T23:27:03.956Z,14.63
2023-03-02T23:29:31.529Z,15.48
2023-03-02T23:31:58.463Z,19.13
2023-03-02T23:34:25.858Z,20.42
2023-03-02T23:36:52.667Z,22.20
2023-03-02T23:39:19.922Z,19.10
2023-03-02T23:41:47.775Z,15.93
2023-03-02T23:44:15.248Z,13.38
2023-03-02T23:46:42.290Z,13.63
2023-03-02T23:49:09.408Z,18.52
2023-03-02T23:51:36.304Z,17.17
2023-03-02T23:54:04.817Z,16.88
2023-03-02T23:56:31.765Z,15.43
2023-03-02T23:58:59.194Z,19.05
